sensor_id;sensor_type;location;lat;lon;timestamp;temperature;humidity
8424;DHT22;4249;49.072;9.770;2022-08-19T00:02:39;20.20;99.90
8424;DHT22;4249;49.072;9.770;2022-08-19T00:05:26;20.10;1.00
8424;DHT22;4249;49.072;9.770;2022-08-19T00:08:14;20.10;1.00
8424;DHT22;4249;49.072;9.770;2022-08-19T00:11:02;20.00;1.00
8424;DHT22;4249;49.072;9.770;2022-08-19T00:13:50;20.00;1.00
8424;DHT22;4249;49.072;9.770;2022-08-19T00:16:37;20.00;20.20
8424;DHT22;4249;49.072;9.770;2022-08-19T00:19:25;19.90;55.70
8424;DHT22;4249;49.072;9.770;2022-08-19T00:22:13;19.90;99.90
8424;DHT22;4249;49.072;9.770;2022-08-19T00:25:02;20.00;99.90
8424;DHT22;4249;49.072;9.770;2022-08-19T00:27:51;20.00;99.90
8424;DHT22;4249;49.072;9.770;2022-08-19T00:30:38;20.00;99.90
8424;DHT22;4249;49.072;9.770;2022-08-19T00:33:26;20.00;99.90
8424;DHT22;4249;49.072;9.770;2022-08-19T00:36:13;20.00;99.90
8424;DHT22;4249;49.072;9.770;2022-08-19T00:39:01;20.00;99.90
8424;DHT22;4249;49.072;9.770;2022-08-19T00:41:49;20.00;99.90
8424;DHT22;4249;49.072;9.770;2022-08-19T00:44:37;20.00;99.90
8424;DHT22;4249;49.072;9.770;2022-08-19T00:47:25;20.00;99.90
8424;DHT22;4249;49.072;9.770;2022-08-19T00:50:14;20.00;99.90
8424;DHT22;4249;49.072;9.770;2022-08-19T00:53:03;19.90;99.90
8424;DHT22;4249;49.072;9.770;2022-08-19T00:55:53;19.90;99.90
8424;DHT22;4249;49.072;9.770;2022-08-19T00:58:41;20.00;99.90
8424;DHT22;4249;49.072;9.770;2022-08-19T01:01:30;20.00;99.90
8424;DHT22;4249;49.072;9.770;2022-08-19T01:04:17;19.90;99.90
8424;DHT22;4249;49.072;9.770;2022-08-19T01:07:05;19.90;99.90
8424;DHT22;4249;49.072;9.770;2022-08-19T01:09:52;19.90;99.90
8424;DHT22;4249;49.072;9.770;2022-08-19T01:12:40;19.80;99.90
8424;DHT22;4249;49.072;9.770;2022-08-19T01:15:31;19.80;95.80
8424;DHT22;4249;49.072;9.770;2022-08-19T01:18:20;19.80;55.70
8424;DHT22;4249;49.072;9.770;2022-08-19T01:21:11;19.80;91.00
8424;DHT22;4249;49.072;9.770;2022-08-19T01:24:04;19.80;56.90
8424;DHT22;4249;49.072;9.770;2022-08-19T01:26:51;19.80;1.00
8424;DHT22;4249;49.072;9.770;2022-08-19T01:29:40;19.80;1.00
8424;DHT22;4249;49.072;9.770;2022-08-19T01:32:27;19.80;1.00
8424;DHT22;4249;49.072;9.770;2022-08-19T01:35:16;19.80;1.00
8424;DHT22;4249;49.072;9.770;2022-08-19T01:38:06;19.80;1.00
8424;DHT22;4249;49.072;9.770;2022-08-19T01:40:57;19.80;1.00
8424;DHT22;4249;49.072;9.770;2022-08-19T01:43:45;19.70;21.50
8424;DHT22;4249;49.072;9.770;2022-08-19T01:46:32;19.70;15.50
8424;DHT22;4249;49.072;9.770;2022-08-19T01:49:22;19.70;32.40
8424;DHT22;4249;49.072;9.770;2022-08-19T01:52:10;19.70;1.50
8424;DHT22;4249;49.072;9.770;2022-08-19T01:54:58;19.70;25.50
8424;DHT22;4249;49.072;9.770;2022-08-19T01:57:50;19.60;71.20
8424;DHT22;4249;49.072;9.770;2022-08-19T02:00:38;19.70;94.70
8424;DHT22;4249;49.072;9.770;2022-08-19T02:03:26;19.60;99.90
8424;DHT22;4249;49.072;9.770;2022-08-19T02:06:14;19.60;99.90
8424;DHT22;4249;49.072;9.770;2022-08-19T02:09:03;19.60;95.50
8424;DHT22;4249;49.072;9.770;2022-08-19T02:11:51;19.60;93.00
8424;DHT22;4249;49.072;9.770;2022-08-19T02:14:40;19.60;99.90
8424;DHT22;4249;49.072;9.770;2022-08-19T02:17:27;19.60;99.90
8424;DHT22;4249;49.072;9.770;2022-08-19T02:20:15;19.60;99.90
8424;DHT22;4249;49.072;9.770;2022-08-19T02:23:03;19.60;99.90
8424;DHT22;4249;49.072;9.770;2022-08-19T02:25:51;19.60;99.90
8424;DHT22;4249;49.072;9.770;2022-08-19T02:28:39;19.60;99.90
8424;DHT22;4249;49.072;9.770;2022-08-19T02:31:28;19.50;99.90
8424;DHT22;4249;49.072;9.770;2022-08-19T02:34:15;19.50;99.90
8424;DHT22;4249;49.072;9.770;2022-08-19T02:37:03;19.50;99.90
8424;DHT22;4249;49.072;9.770;2022-08-19T02:39:50;19.50;99.90
8424;DHT22;4249;49.072;9.770;2022-08-19T02:42:36;19.40;99.90
8424;DHT22;4249;49.072;9.770;2022-08-19T02:45:24;19.40;99.90
8424;DHT22;4249;49.072;9.770;2022-08-19T02:48:13;19.40;99.90
8424;DHT22;4249;49.072;9.770;2022-08-19T02:51:03;19.40;99.90
8424;DHT22;4249;49.072;9.770;2022-08-19T02:53:51;19.40;99.90
8424;DHT22;4249;49.072;9.770;2022-08-19T02:56:41;19.40;99.90
8424;DHT22;4249;49.072;9.770;2022-08-19T02:59:29;19.40;99.90
8424;DHT22;4249;49.072;9.770;2022-08-19T03:02:17;19.40;99.90
8424;DHT22;4249;49.072;9.770;2022-08-19T03:05:08;19.30;1.00
8424;DHT22;4249;49.072;9.770;2022-08-19T03:07:56;19.40;99.90
8424;DHT22;4249;49.072;9.770;2022-08-19T03:10:47;19.30;99.90
8424;DHT22;4249;49.072;9.770;2022-08-19T03:13:35;19.40;99.90
8424;DHT22;4249;49.072;9.770;2022-08-19T03:16:24;19.40;99.90
8424;DHT22;4249;49.072;9.770;2022-08-19T03:19:11;19.30;1.00
8424;DHT22;4249;49.072;9.770;2022-08-19T03:22:00;19.30;1.00
8424;DHT22;4249;49.072;9.770;2022-08-19T03:24:48;19.40;99.90
8424;DHT22;4249;49.072;9.770;2022-08-19T03:27:35;19.30;99.90
8424;DHT22;4249;49.072;9.770;2022-08-19T03:30:22;19.40;1.00
8424;DHT22;4249;49.072;9.770;2022-08-19T03:33:10;19.30;99.90
8424;DHT22;4249;49.072;9.770;2022-08-19T03:36:06;19.30;99.90
8424;DHT22;4249;49.072;9.770;2022-08-19T03:39:00;19.30;99.90
8424;DHT22;4249;49.072;9.770;2022-08-19T03:41:51;19.30;99.90
8424;DHT22;4249;49.072;9.770;2022-08-19T03:44:38;19.30;99.90
8424;DHT22;4249;49.072;9.770;2022-08-19T03:47:25;19.30;99.90
8424;DHT22;4249;49.072;9.770;2022-08-19T03:50:12;19.30;99.90
8424;DHT22;4249;49.072;9.770;2022-08-19T03:53:00;19.30;99.90
8424;DHT22;4249;49.072;9.770;2022-08-19T03:55:49;19.20;1.00
8424;DHT22;4249;49.072;9.770;2022-08-19T03:58:37;19.20;99.90
8424;DHT22;4249;49.072;9.770;2022-08-19T04:01:26;19.20;99.90
8424;DHT22;4249;49.072;9.770;2022-08-19T04:04:15;19.20;99.90
8424;DHT22;4249;49.072;9.770;2022-08-19T04:07:02;19.20;1.00
8424;DHT22;4249;49.072;9.770;2022-08-19T04:09:50;19.20;1.00
8424;DHT22;4249;49.072;9.770;2022-08-19T04:12:39;19.20;1.00
8424;DHT22;4249;49.072;9.770;2022-08-19T04:15:26;19.20;1.00
8424;DHT22;4249;49.072;9.770;2022-08-19T04:18:19;19.30;99.90
8424;DHT22;4249;49.072;9.770;2022-08-19T04:21:08;19.40;99.90
8424;DHT22;4249;49.072;9.770;2022-08-19T04:23:56;19.30;99.90
8424;DHT22;4249;49.072;9.770;2022-08-19T04:26:43;19.40;99.90
8424;DHT22;4249;49.072;9.770;2022-08-19T04:29:32;19.40;99.90
8424;DHT22;4249;49.072;9.770;2022-08-19T04:32:20;19.30;99.90
8424;DHT22;4249;49.072;9.770;2022-08-19T04:35:08;19.30;99.90
8424;DHT22;4249;49.072;9.770;2022-08-19T04:37:55;19.40;99.90
8424;DHT22;4249;49.072;9.770;2022-08-19T04:40:44;19.30;1.00
8424;DHT22;4249;49.072;9.770;2022-08-19T04:43:49;19.40;99.90
8424;DHT22;4249;49.072;9.770;2022-08-19T04:46:38;19.40;99.90
8424;DHT22;4249;49.072;9.770;2022-08-19T04:49:26;19.50;99.90
8424;DHT22;4249;49.072;9.770;2022-08-19T04:52:13;19.50;99.90
8424;DHT22;4249;49.072;9.770;2022-08-19T04:55:01;19.60;99.90
8424;DHT22;4249;49.072;9.770;2022-08-19T04:57:48;19.60;99.90
8424;DHT22;4249;49.072;9.770;2022-08-19T05:00:38;19.50;99.90
8424;DHT22;4249;49.072;9.770;2022-08-19T05:03:27;19.50;99.90
8424;DHT22;4249;49.072;9.770;2022-08-19T05:06:20;19.50;99.90
8424;DHT22;4249;49.072;9.770;2022-08-19T05:09:08;19.50;99.90
8424;DHT22;4249;49.072;9.770;2022-08-19T05:11:55;19.60;99.90
8424;DHT22;4249;49.072;9.770;2022-08-19T05:14:42;19.60;99.90
8424;DHT22;4249;49.072;9.770;2022-08-19T05:17:31;19.60;99.90
8424;DHT22;4249;49.072;9.770;2022-08-19T05:20:20;19.60;99.90
8424;DHT22;4249;49.072;9.770;2022-08-19T05:23:25;19.50;99.90
8424;DHT22;4249;49.072;9.770;2022-08-19T05:26:12;19.50;99.90
8424;DHT22;4249;49.072;9.770;2022-08-19T05:28:59;19.60;99.90
8424;DHT22;4249;49.072;9.770;2022-08-19T05:31:26;19.60;99.90
8424;DHT22;4249;49.072;9.770;2022-08-19T05:33:53;19.60;99.90
8424;DHT22;4249;49.072;9.770;2022-08-19T05:36:23;19.60;99.90
8424;DHT22;4249;49.072;9.770;2022-08-19T05:38:49;19.70;99.90
8424;DHT22;4249;49.072;9.770;2022-08-19T05:41:18;19.70;99.90
8424;DHT22;4249;49.072;9.770;2022-08-19T05:43:45;19.80;99.90
8424;DHT22;4249;49.072;9.770;2022-08-19T05:46:17;19.80;99.90
8424;DHT22;4249;49.072;9.770;2022-08-19T05:48:44;19.90;99.90
8424;DHT22;4249;49.072;9.770;2022-08-19T05:51:12;19.90;99.90
8424;DHT22;4249;49.072;9.770;2022-08-19T05:53:41;20.00;99.90
8424;DHT22;4249;49.072;9.770;2022-08-19T05:56:10;20.00;1.00
8424;DHT22;4249;49.072;9.770;2022-08-19T05:58:38;20.10;1.00
8424;DHT22;4249;49.072;9.770;2022-08-19T06:01:10;20.10;36.00
8424;DHT22;4249;49.072;9.770;2022-08-19T06:03:37;20.10;95.40
8424;DHT22;4249;49.072;9.770;2022-08-19T06:06:05;20.20;1.00
8424;DHT22;4249;49.072;9.770;2022-08-19T06:08:33;20.30;1.00
8424;DHT22;4249;49.072;9.770;2022-08-19T06:11:14;20.40;1.00
8424;DHT22;4249;49.072;9.770;2022-08-19T06:13:42;20.40;1.00
8424;DHT22;4249;49.072;9.770;2022-08-19T06:16:09;20.40;1.00
8424;DHT22;4249;49.072;9.770;2022-08-19T06:18:36;20.40;99.90
8424;DHT22;4249;49.072;9.770;2022-08-19T06:21:03;20.40;99.90
8424;DHT22;4249;49.072;9.770;2022-08-19T06:23:30;20.40;1.00
8424;DHT22;4249;49.072;9.770;2022-08-19T06:25:57;20.50;99.90
8424;DHT22;4249;49.072;9.770;2022-08-19T06:28:26;20.50;99.90
8424;DHT22;4249;49.072;9.770;2022-08-19T06:30:53;20.60;60.80
8424;DHT22;4249;49.072;9.770;2022-08-19T06:33:20;20.60;99.90
8424;DHT22;4249;49.072;9.770;2022-08-19T06:35:46;20.70;97.30
8424;DHT22;4249;49.072;9.770;2022-08-19T06:38:13;20.80;1.00
8424;DHT22;4249;49.072;9.770;2022-08-19T06:40:40;20.90;1.00
8424;DHT22;4249;49.072;9.770;2022-08-19T06:43:07;20.90;1.00
8424;DHT22;4249;49.072;9.770;2022-08-19T06:45:36;20.90;1.00
8424;DHT22;4249;49.072;9.770;2022-08-19T06:48:03;20.90;99.90
8424;DHT22;4249;49.072;9.770;2022-08-19T06:50:30;21.00;99.90
8424;DHT22;4249;49.072;9.770;2022-08-19T06:52:57;21.00;99.90
8424;DHT22;4249;49.072;9.770;2022-08-19T06:55:24;21.10;99.90
8424;DHT22;4249;49.072;9.770;2022-08-19T06:57:52;21.10;99.90
8424;DHT22;4249;49.072;9.770;2022-08-19T07:00:19;21.10;99.90
8424;DHT22;4249;49.072;9.770;2022-08-19T07:02:48;21.00;99.90
8424;DHT22;4249;49.072;9.770;2022-08-19T07:05:14;21.00;99.90
8424;DHT22;4249;49.072;9.770;2022-08-19T07:07:42;21.00;99.90
8424;DHT22;4249;49.072;9.770;2022-08-19T07:10:09;20.90;99.90
8424;DHT22;4249;49.072;9.770;2022-08-19T07:12:37;20.90;99.90
8424;DHT22;4249;49.072;9.770;2022-08-19T07:15:04;20.80;1.00
8424;DHT22;4249;49.072;9.770;2022-08-19T07:17:34;20.80;1.00
8424;DHT22;4249;49.072;9.770;2022-08-19T07:20:06;20.80;1.00
8424;DHT22;4249;49.072;9.770;2022-08-19T07:22:33;20.80;1.00
8424;DHT22;4249;49.072;9.770;2022-08-19T07:25:00;20.90;1.00
8424;DHT22;4249;49.072;9.770;2022-08-19T07:27:29;21.00;1.00
8424;DHT22;4249;49.072;9.770;2022-08-19T07:29:56;21.00;1.00
8424;DHT22;4249;49.072;9.770;2022-08-19T07:32:23;21.00;1.00
8424;DHT22;4249;49.072;9.770;2022-08-19T07:34:51;21.00;99.90
8424;DHT22;4249;49.072;9.770;2022-08-19T07:37:20;21.00;99.90
8424;DHT22;4249;49.072;9.770;2022-08-19T07:39:47;20.90;99.90
8424;DHT22;4249;49.072;9.770;2022-08-19T07:42:14;20.90;99.90
8424;DHT22;4249;49.072;9.770;2022-08-19T07:44:46;20.80;1.00
8424;DHT22;4249;49.072;9.770;2022-08-19T07:47:13;20.80;1.00
8424;DHT22;4249;49.072;9.770;2022-08-19T07:49:41;20.90;1.00
8424;DHT22;4249;49.072;9.770;2022-08-19T07:52:09;20.90;1.00
8424;DHT22;4249;49.072;9.770;2022-08-19T07:54:39;20.90;1.00
8424;DHT22;4249;49.072;9.770;2022-08-19T07:57:07;20.90;1.00
8424;DHT22;4249;49.072;9.770;2022-08-19T07:59:34;20.90;1.00
8424;DHT22;4249;49.072;9.770;2022-08-19T08:02:02;20.90;99.90
8424;DHT22;4249;49.072;9.770;2022-08-19T08:04:30;20.90;1.00
8424;DHT22;4249;49.072;9.770;2022-08-19T08:07:15;20.80;99.90
8424;DHT22;4249;49.072;9.770;2022-08-19T08:10:04;20.70;1.00
8424;DHT22;4249;49.072;9.770;2022-08-19T08:12:35;20.60;1.00
8424;DHT22;4249;49.072;9.770;2022-08-19T08:15:10;20.70;1.00
8424;DHT22;4249;49.072;9.770;2022-08-19T08:17:37;20.60;99.90
8424;DHT22;4249;49.072;9.770;2022-08-19T08:20:04;20.60;99.90
8424;DHT22;4249;49.072;9.770;2022-08-19T08:22:33;20.60;99.90
8424;DHT22;4249;49.072;9.770;2022-08-19T08:25:23;20.70;99.90
8424;DHT22;4249;49.072;9.770;2022-08-19T08:27:50;20.70;1.00
8424;DHT22;4249;49.072;9.770;2022-08-19T08:30:20;20.70;1.00
8424;DHT22;4249;49.072;9.770;2022-08-19T08:32:48;20.70;99.90
8424;DHT22;4249;49.072;9.770;2022-08-19T08:35:18;20.70;1.00
8424;DHT22;4249;49.072;9.770;2022-08-19T08:37:46;20.80;1.00
8424;DHT22;4249;49.072;9.770;2022-08-19T08:40:21;20.80;68.60
8424;DHT22;4249;49.072;9.770;2022-08-19T08:42:54;20.80;99.90
8424;DHT22;4249;49.072;9.770;2022-08-19T08:45:27;20.80;64.00
8424;DHT22;4249;49.072;9.770;2022-08-19T08:47:57;20.80;54.10
8424;DHT22;4249;49.072;9.770;2022-08-19T08:50:31;20.80;99.90
8424;DHT22;4249;49.072;9.770;2022-08-19T08:53:02;20.80;30.70
8424;DHT22;4249;49.072;9.770;2022-08-19T08:55:32;20.90;1.00
8424;DHT22;4249;49.072;9.770;2022-08-19T08:58:02;21.00;15.90
8424;DHT22;4249;49.072;9.770;2022-08-19T09:00:33;21.20;1.00
8424;DHT22;4249;49.072;9.770;2022-08-19T09:03:02;21.40;1.00
8424;DHT22;4249;49.072;9.770;2022-08-19T09:05:38;21.40;99.90
8424;DHT22;4249;49.072;9.770;2022-08-19T09:08:13;21.50;99.90
8424;DHT22;4249;49.072;9.770;2022-08-19T09:10:50;21.40;99.90
8424;DHT22;4249;49.072;9.770;2022-08-19T09:13:26;21.40;99.90
8424;DHT22;4249;49.072;9.770;2022-08-19T09:16:00;21.60;99.90
8424;DHT22;4249;49.072;9.770;2022-08-19T09:18:38;21.80;99.90
8424;DHT22;4249;49.072;9.770;2022-08-19T09:21:06;21.90;99.90
8424;DHT22;4249;49.072;9.770;2022-08-19T09:23:34;22.00;99.90
8424;DHT22;4249;49.072;9.770;2022-08-19T09:26:07;22.10;99.90
8424;DHT22;4249;49.072;9.770;2022-08-19T09:28:35;22.00;99.90
8424;DHT22;4249;49.072;9.770;2022-08-19T09:31:02;21.90;99.90
8424;DHT22;4249;49.072;9.770;2022-08-19T09:33:29;21.90;99.90
8424;DHT22;4249;49.072;9.770;2022-08-19T09:36:04;21.80;99.90
8424;DHT22;4249;49.072;9.770;2022-08-19T09:38:31;21.80;99.90
8424;DHT22;4249;49.072;9.770;2022-08-19T09:41:03;21.80;99.90
8424;DHT22;4249;49.072;9.770;2022-08-19T09:43:31;21.90;99.90
8424;DHT22;4249;49.072;9.770;2022-08-19T09:45:59;21.90;99.90
8424;DHT22;4249;49.072;9.770;2022-08-19T09:48:27;21.80;99.90
8424;DHT22;4249;49.072;9.770;2022-08-19T09:50:54;21.80;99.90
8424;DHT22;4249;49.072;9.770;2022-08-19T09:53:21;21.80;99.90
8424;DHT22;4249;49.072;9.770;2022-08-19T09:55:48;21.70;99.90
8424;DHT22;4249;49.072;9.770;2022-08-19T09:58:17;21.80;99.90
8424;DHT22;4249;49.072;9.770;2022-08-19T10:00:44;21.80;99.90
8424;DHT22;4249;49.072;9.770;2022-08-19T10:03:11;21.70;99.90
8424;DHT22;4249;49.072;9.770;2022-08-19T10:05:58;21.70;99.90
8424;DHT22;4249;49.072;9.770;2022-08-19T10:08:46;21.70;99.90
8424;DHT22;4249;49.072;9.770;2022-08-19T10:11:34;21.60;99.90
8424;DHT22;4249;49.072;9.770;2022-08-19T10:14:25;21.60;99.90
8424;DHT22;4249;49.072;9.770;2022-08-19T10:17:13;21.60;99.90
8424;DHT22;4249;49.072;9.770;2022-08-19T10:20:00;21.50;99.90
8424;DHT22;4249;49.072;9.770;2022-08-19T10:22:48;21.50;99.90
8424;DHT22;4249;49.072;9.770;2022-08-19T10:25:36;21.50;99.90
8424;DHT22;4249;49.072;9.770;2022-08-19T10:28:23;21.50;99.90
8424;DHT22;4249;49.072;9.770;2022-08-19T10:31:13;21.50;99.90
8424;DHT22;4249;49.072;9.770;2022-08-19T10:34:01;21.50;99.90
8424;DHT22;4249;49.072;9.770;2022-08-19T10:36:48;21.50;99.90
8424;DHT22;4249;49.072;9.770;2022-08-19T10:39:37;21.30;99.90
8424;DHT22;4249;49.072;9.770;2022-08-19T10:42:24;21.30;99.90
8424;DHT22;4249;49.072;9.770;2022-08-19T10:45:11;21.10;99.90
8424;DHT22;4249;49.072;9.770;2022-08-19T10:48:00;21.00;99.90
8424;DHT22;4249;49.072;9.770;2022-08-19T10:50:48;21.00;99.90
8424;DHT22;4249;49.072;9.770;2022-08-19T10:53:53;20.90;99.90
8424;DHT22;4249;49.072;9.770;2022-08-19T10:56:41;20.80;99.90
8424;DHT22;4249;49.072;9.770;2022-08-19T10:59:39;20.80;99.90
8424;DHT22;4249;49.072;9.770;2022-08-19T11:02:26;20.70;99.90
8424;DHT22;4249;49.072;9.770;2022-08-19T11:05:15;20.60;99.90
8424;DHT22;4249;49.072;9.770;2022-08-19T11:08:03;20.50;99.90
8424;DHT22;4249;49.072;9.770;2022-08-19T11:10:52;20.50;99.90
8424;DHT22;4249;49.072;9.770;2022-08-19T11:13:41;20.50;99.90
8424;DHT22;4249;49.072;9.770;2022-08-19T11:16:30;20.50;99.90
8424;DHT22;4249;49.072;9.770;2022-08-19T11:19:18;20.50;99.90
8424;DHT22;4249;49.072;9.770;2022-08-19T11:22:09;20.50;99.90
8424;DHT22;4249;49.072;9.770;2022-08-19T11:24:56;20.50;99.90
8424;DHT22;4249;49.072;9.770;2022-08-19T11:27:43;20.40;99.90
8424;DHT22;4249;49.072;9.770;2022-08-19T11:30:32;20.30;99.90
8424;DHT22;4249;49.072;9.770;2022-08-19T11:33:20;20.30;99.90
8424;DHT22;4249;49.072;9.770;2022-08-19T11:36:07;20.30;99.90
8424;DHT22;4249;49.072;9.770;2022-08-19T11:38:56;20.40;99.90
8424;DHT22;4249;49.072;9.770;2022-08-19T11:41:43;20.30;99.90
8424;DHT22;4249;49.072;9.770;2022-08-19T11:44:30;20.30;99.90
8424;DHT22;4249;49.072;9.770;2022-08-19T11:47:18;20.20;99.90
8424;DHT22;4249;49.072;9.770;2022-08-19T11:50:06;20.00;99.90
8424;DHT22;4249;49.072;9.770;2022-08-19T11:52:54;19.90;99.90
8424;DHT22;4249;49.072;9.770;2022-08-19T11:55:43;19.90;99.90
8424;DHT22;4249;49.072;9.770;2022-08-19T11:58:31;20.00;99.90
8424;DHT22;4249;49.072;9.770;2022-08-19T12:01:21;20.10;99.90
8424;DHT22;4249;49.072;9.770;2022-08-19T12:04:08;20.10;99.90
8424;DHT22;4249;49.072;9.770;2022-08-19T12:06:56;20.00;99.90
8424;DHT22;4249;49.072;9.770;2022-08-19T12:09:43;20.00;99.90
8424;DHT22;4249;49.072;9.770;2022-08-19T12:12:31;19.90;99.90
8424;DHT22;4249;49.072;9.770;2022-08-19T12:15:19;20.00;99.90
8424;DHT22;4249;49.072;9.770;2022-08-19T12:18:06;20.00;99.90
8424;DHT22;4249;49.072;9.770;2022-08-19T12:20:55;20.00;99.90
8424;DHT22;4249;49.072;9.770;2022-08-19T12:23:43;20.00;99.90
8424;DHT22;4249;49.072;9.770;2022-08-19T12:26:31;20.00;99.90
8424;DHT22;4249;49.072;9.770;2022-08-19T12:29:20;19.90;99.90
8424;DHT22;4249;49.072;9.770;2022-08-19T12:32:07;19.80;99.90
8424;DHT22;4249;49.072;9.770;2022-08-19T12:34:54;19.80;99.90
8424;DHT22;4249;49.072;9.770;2022-08-19T12:37:43;19.80;99.90
8424;DHT22;4249;49.072;9.770;2022-08-19T12:40:30;19.80;99.90
8424;DHT22;4249;49.072;9.770;2022-08-19T12:43:18;19.80;99.90
8424;DHT22;4249;49.072;9.770;2022-08-19T12:46:08;19.80;99.90
8424;DHT22;4249;49.072;9.770;2022-08-19T12:48:56;19.80;99.90
8424;DHT22;4249;49.072;9.770;2022-08-19T12:51:43;19.70;99.90
8424;DHT22;4249;49.072;9.770;2022-08-19T12:54:31;19.60;99.90
8424;DHT22;4249;49.072;9.770;2022-08-19T12:57:19;19.60;99.90
8424;DHT22;4249;49.072;9.770;2022-08-19T13:00:09;19.50;99.90
8424;DHT22;4249;49.072;9.770;2022-08-19T13:03:00;19.40;99.90
8424;DHT22;4249;49.072;9.770;2022-08-19T13:05:47;19.50;99.90
8424;DHT22;4249;49.072;9.770;2022-08-19T13:08:36;19.50;99.90
8424;DHT22;4249;49.072;9.770;2022-08-19T13:11:24;19.60;99.90
8424;DHT22;4249;49.072;9.770;2022-08-19T13:14:11;19.80;99.90
8424;DHT22;4249;49.072;9.770;2022-08-19T13:16:58;19.90;99.90
8424;DHT22;4249;49.072;9.770;2022-08-19T13:19:47;19.90;99.90
8424;DHT22;4249;49.072;9.770;2022-08-19T13:22:34;19.90;99.90
8424;DHT22;4249;49.072;9.770;2022-08-19T13:25:22;20.00;99.90
8424;DHT22;4249;49.072;9.770;2022-08-19T13:28:09;19.90;99.90
8424;DHT22;4249;49.072;9.770;2022-08-19T13:30:56;20.00;99.90
8424;DHT22;4249;49.072;9.770;2022-08-19T13:34:06;20.00;99.90
8424;DHT22;4249;49.072;9.770;2022-08-19T13:36:56;20.10;99.90
8424;DHT22;4249;49.072;9.770;2022-08-19T13:39:43;20.10;99.90
8424;DHT22;4249;49.072;9.770;2022-08-19T13:42:30;20.10;99.90
8424;DHT22;4249;49.072;9.770;2022-08-19T13:45:21;20.20;99.90
8424;DHT22;4249;49.072;9.770;2022-08-19T13:48:08;20.20;99.90
8424;DHT22;4249;49.072;9.770;2022-08-19T13:50:55;20.20;99.90
8424;DHT22;4249;49.072;9.770;2022-08-19T13:53:44;20.20;99.90
8424;DHT22;4249;49.072;9.770;2022-08-19T13:56:31;20.20;99.90
8424;DHT22;4249;49.072;9.770;2022-08-19T13:59:19;20.30;99.90
8424;DHT22;4249;49.072;9.770;2022-08-19T14:02:06;20.30;99.90
8424;DHT22;4249;49.072;9.770;2022-08-19T14:04:54;20.30;99.90
8424;DHT22;4249;49.072;9.770;2022-08-19T14:07:41;20.40;99.90
8424;DHT22;4249;49.072;9.770;2022-08-19T14:10:30;20.40;99.90
8424;DHT22;4249;49.072;9.770;2022-08-19T14:13:20;20.50;99.90
8424;DHT22;4249;49.072;9.770;2022-08-19T14:16:08;20.50;99.90
8424;DHT22;4249;49.072;9.770;2022-08-19T14:18:56;20.60;99.90
8424;DHT22;4249;49.072;9.770;2022-08-19T14:21:43;20.60;99.90
8424;DHT22;4249;49.072;9.770;2022-08-19T14:24:31;20.70;99.90
8424;DHT22;4249;49.072;9.770;2022-08-19T14:27:19;20.80;99.90
8424;DHT22;4249;49.072;9.770;2022-08-19T14:30:09;21.00;99.90
8424;DHT22;4249;49.072;9.770;2022-08-19T14:32:58;21.10;99.90
8424;DHT22;4249;49.072;9.770;2022-08-19T14:35:45;21.30;99.90
8424;DHT22;4249;49.072;9.770;2022-08-19T14:38:32;21.40;99.90
8424;DHT22;4249;49.072;9.770;2022-08-19T14:41:24;21.60;99.90
8424;DHT22;4249;49.072;9.770;2022-08-19T14:44:14;21.80;99.90
8424;DHT22;4249;49.072;9.770;2022-08-19T14:47:01;21.80;99.90
8424;DHT22;4249;49.072;9.770;2022-08-19T14:49:48;22.10;99.90
8424;DHT22;4249;49.072;9.770;2022-08-19T14:52:35;21.90;99.90
8424;DHT22;4249;49.072;9.770;2022-08-19T14:55:23;21.70;99.90
8424;DHT22;4249;49.072;9.770;2022-08-19T14:58:11;21.80;99.90
8424;DHT22;4249;49.072;9.770;2022-08-19T15:01:00;22.10;99.90
8424;DHT22;4249;49.072;9.770;2022-08-19T15:03:49;22.20;99.90
8424;DHT22;4249;49.072;9.770;2022-08-19T15:06:39;22.30;99.90
8424;DHT22;4249;49.072;9.770;2022-08-19T15:09:28;22.20;99.90
8424;DHT22;4249;49.072;9.770;2022-08-19T15:12:15;22.20;99.90
8424;DHT22;4249;49.072;9.770;2022-08-19T15:15:03;22.00;99.90
8424;DHT22;4249;49.072;9.770;2022-08-19T15:17:51;22.00;99.90
8424;DHT22;4249;49.072;9.770;2022-08-19T15:20:39;21.90;99.90
8424;DHT22;4249;49.072;9.770;2022-08-19T15:23:26;22.00;99.90
8424;DHT22;4249;49.072;9.770;2022-08-19T15:26:14;22.20;99.90
8424;DHT22;4249;49.072;9.770;2022-08-19T15:29:01;22.20;99.90
8424;DHT22;4249;49.072;9.770;2022-08-19T15:31:49;22.10;99.90
8424;DHT22;4249;49.072;9.770;2022-08-19T15:34:37;22.00;99.90
8424;DHT22;4249;49.072;9.770;2022-08-19T15:37:25;21.80;99.90
8424;DHT22;4249;49.072;9.770;2022-08-19T15:40:12;21.60;99.90
8424;DHT22;4249;49.072;9.770;2022-08-19T15:42:59;21.40;99.90
8424;DHT22;4249;49.072;9.770;2022-08-19T15:45:47;21.10;99.90
8424;DHT22;4249;49.072;9.770;2022-08-19T15:48:36;20.90;99.90
8424;DHT22;4249;49.072;9.770;2022-08-19T15:51:26;20.70;99.90
8424;DHT22;4249;49.072;9.770;2022-08-19T15:54:16;20.70;99.90
8424;DHT22;4249;49.072;9.770;2022-08-19T15:57:06;20.60;99.90
8424;DHT22;4249;49.072;9.770;2022-08-19T16:00:11;20.60;99.90
8424;DHT22;4249;49.072;9.770;2022-08-19T16:03:16;20.40;99.90
8424;DHT22;4249;49.072;9.770;2022-08-19T16:06:21;20.40;99.90
8424;DHT22;4249;49.072;9.770;2022-08-19T16:09:16;20.30;99.90
8424;DHT22;4249;49.072;9.770;2022-08-19T16:12:04;20.30;99.90
8424;DHT22;4249;49.072;9.770;2022-08-19T16:14:55;20.40;99.90
8424;DHT22;4249;49.072;9.770;2022-08-19T16:17:42;20.40;99.90
8424;DHT22;4249;49.072;9.770;2022-08-19T16:20:30;20.60;99.90
8424;DHT22;4249;49.072;9.770;2022-08-19T16:23:17;20.50;99.90
8424;DHT22;4249;49.072;9.770;2022-08-19T16:26:06;20.50;99.90
8424;DHT22;4249;49.072;9.770;2022-08-19T16:28:54;20.60;99.90
8424;DHT22;4249;49.072;9.770;2022-08-19T16:31:43;20.40;99.90
8424;DHT22;4249;49.072;9.770;2022-08-19T16:34:32;20.40;99.90
8424;DHT22;4249;49.072;9.770;2022-08-19T16:37:19;20.40;99.90
8424;DHT22;4249;49.072;9.770;2022-08-19T16:40:08;20.40;99.90
8424;DHT22;4249;49.072;9.770;2022-08-19T16:42:57;20.40;99.90
8424;DHT22;4249;49.072;9.770;2022-08-19T16:45:44;20.30;99.90
8424;DHT22;4249;49.072;9.770;2022-08-19T16:48:32;20.20;99.90
8424;DHT22;4249;49.072;9.770;2022-08-19T16:51:19;20.20;99.90
8424;DHT22;4249;49.072;9.770;2022-08-19T16:54:07;20.30;99.90
8424;DHT22;4249;49.072;9.770;2022-08-19T16:56:55;20.20;99.90
8424;DHT22;4249;49.072;9.770;2022-08-19T16:59:43;20.10;99.90
8424;DHT22;4249;49.072;9.770;2022-08-19T17:02:31;20.00;99.90
8424;DHT22;4249;49.072;9.770;2022-08-19T17:05:18;20.20;99.90
8424;DHT22;4249;49.072;9.770;2022-08-19T17:08:06;20.10;99.90
8424;DHT22;4249;49.072;9.770;2022-08-19T17:10:54;20.10;99.90
8424;DHT22;4249;49.072;9.770;2022-08-19T17:13:42;20.00;99.90
8424;DHT22;4249;49.072;9.770;2022-08-19T17:16:32;19.80;99.90
8424;DHT22;4249;49.072;9.770;2022-08-19T17:19:19;19.70;99.90
8424;DHT22;4249;49.072;9.770;2022-08-19T17:22:06;19.70;99.90
8424;DHT22;4249;49.072;9.770;2022-08-19T17:24:55;19.60;99.90
8424;DHT22;4249;49.072;9.770;2022-08-19T17:27:42;19.60;99.90
8424;DHT22;4249;49.072;9.770;2022-08-19T17:30:29;19.60;99.90
8424;DHT22;4249;49.072;9.770;2022-08-19T17:33:18;19.60;99.90
8424;DHT22;4249;49.072;9.770;2022-08-19T17:36:06;19.70;99.90
8424;DHT22;4249;49.072;9.770;2022-08-19T17:38:55;19.70;99.90
8424;DHT22;4249;49.072;9.770;2022-08-19T17:41:42;19.60;99.90
8424;DHT22;4249;49.072;9.770;2022-08-19T17:44:30;19.70;99.90
8424;DHT22;4249;49.072;9.770;2022-08-19T17:47:18;19.60;99.90
8424;DHT22;4249;49.072;9.770;2022-08-19T17:50:09;19.70;99.90